Terminal Aerodrome Forecast
Issued by NWS Wakefield, VA

Home | Current Version | Previous Version | Text Only | Print | Product List | Glossary On
Versions: 1 2 3 4 5 6 7 8 9 10 11 12
000
FTUS41 KAKQ 051743
TAFORF
TAF
KORF 051743Z 0518/0618 20012G20KT P6SM SKC
     FM052200 20009KT P6SM SKC
     FM061000 22006KT P6SM FEW060=

USA.gov is the U.S. government's official web portal to all federal, state and local government web resources and services.